createdAt,value
2017-08-25T00:00:13.309Z,17.60
2017-08-25T00:05:30.411Z,17.50
2017-08-25T00:10:46.853Z,17.50
2017-08-25T00:16:03.274Z,17.50
2017-08-25T00:21:04.929Z,17.50
2017-08-25T00:26:07.240Z,17.50
2017-08-25T00:31:08.913Z,17.30
2017-08-25T00:36:10.586Z,17.10
2017-08-25T00:41:12.233Z,17.10
2017-08-25T00:46:13.909Z,17.10
2017-08-25T00:51:15.492Z,17.00
2017-08-25T00:56:18.481Z,17.00
2017-08-25T01:01:20.180Z,16.80
2017-08-25T01:06:21.785Z,16.90
2017-08-25T01:11:23.994Z,16.90
2017-08-25T01:16:26.429Z,16.80
2017-08-25T01:21:28.919Z,16.80
2017-08-25T01:26:30.590Z,16.70
2017-08-25T01:31:32.264Z,16.60
2017-08-25T01:36:34.039Z,16.70
2017-08-25T01:41:35.672Z,16.50
2017-08-25T01:46:37.349Z,16.60
2017-08-25T01:51:39.057Z,16.50
2017-08-25T01:56:41.906Z,16.60
2017-08-25T02:01:43.631Z,16.60
2017-08-25T02:06:46.284Z,16.50
2017-08-25T02:11:47.998Z,16.40
2017-08-25T02:16:49.630Z,16.40
2017-08-25T02:21:51.325Z,16.50
2017-08-25T02:26:53.019Z,16.40
2017-08-25T02:31:54.869Z,16.60
2017-08-25T02:37:11.963Z,16.60
2017-08-25T02:42:28.435Z,16.60
2017-08-25T02:47:45.246Z,16.70
2017-08-25T02:52:48.761Z,16.60
2017-08-25T02:57:54.832Z,16.60
2017-08-25T03:03:11.283Z,16.60
2017-08-25T03:08:12.944Z,16.70
2017-08-25T03:13:29.343Z,16.60
2017-08-25T03:18:31.034Z,16.40
2017-08-25T03:23:32.701Z,16.40
2017-08-25T03:28:35.277Z,16.40
2017-08-25T03:33:37.094Z,16.40
2017-08-25T03:38:38.767Z,16.40
2017-08-25T03:43:40.440Z,16.20
2017-08-25T03:48:42.090Z,16.30
2017-08-25T03:53:44.315Z,16.30
2017-08-25T03:58:46.627Z,16.30
2017-08-25T04:03:49.614Z,16.30
2017-08-25T04:08:52.084Z,16.30
2017-08-25T04:13:53.724Z,16.30
2017-08-25T04:18:55.432Z,16.40
2017-08-25T04:23:57.099Z,16.40
2017-08-25T04:28:58.771Z,16.30
2017-08-25T04:34:00.646Z,16.30
2017-08-25T04:39:02.526Z,16.30
2017-08-25T04:44:07.238Z,16.20
2017-08-25T04:49:09.125Z,16.20
2017-08-25T04:54:10.781Z,16.20
2017-08-25T04:59:14.234Z,16.30
2017-08-25T05:04:16.213Z,16.40
2017-08-25T05:09:17.887Z,16.40
2017-08-25T05:14:19.866Z,16.40
2017-08-25T05:19:21.519Z,16.40
2017-08-25T05:24:23.388Z,16.40
2017-08-25T05:29:25.053Z,16.30
2017-08-25T05:34:27.378Z,16.40
2017-08-25T05:39:29.254Z,16.50
2017-08-25T05:44:35.111Z,16.60
2017-08-25T05:49:37.530Z,16.60
2017-08-25T05:54:40.763Z,16.60
2017-08-25T05:59:42.703Z,16.80
2017-08-25T06:04:46.630Z,16.90
2017-08-25T06:09:48.301Z,17.50
2017-08-25T06:14:50.160Z,17.90
2017-08-25T06:19:52.475Z,17.70
2017-08-25T06:24:55.738Z,17.70
2017-08-25T06:29:58.166Z,18.30
2017-08-25T06:34:59.800Z,18.60
2017-08-25T06:40:01.615Z,18.40
2017-08-25T06:45:04.107Z,18.30
2017-08-25T06:50:05.984Z,18.80
2017-08-25T06:55:07.617Z,19.20
2017-08-25T07:00:10.080Z,19.40
2017-08-25T07:05:11.782Z,19.60
2017-08-25T07:10:15.201Z,19.60
2017-08-25T07:15:16.908Z,20.60
2017-08-25T07:20:19.198Z,20.40
2017-08-25T07:25:20.868Z,20.00
2017-08-25T07:30:23.547Z,20.00
2017-08-25T07:35:25.202Z,20.10
2017-08-25T07:40:27.094Z,20.90
2017-08-25T07:45:28.772Z,21.20
2017-08-25T07:50:30.646Z,22.10
2017-08-25T07:55:32.338Z,22.80
2017-08-25T08:00:34.625Z,23.10
2017-08-25T08:05:36.296Z,22.40
2017-08-25T08:10:40.222Z,22.00
2017-08-25T08:15:41.869Z,21.80
2017-08-25T08:20:44.803Z,21.60
2017-08-25T08:25:46.470Z,21.50
2017-08-25T08:30:48.117Z,21.50
2017-08-25T08:35:49.815Z,21.60
2017-08-25T08:40:51.575Z,22.00
2017-08-25T08:45:53.569Z,22.40
2017-08-25T08:50:55.756Z,22.80
2017-08-25T08:55:57.513Z,23.10
2017-08-25T09:00:59.509Z,23.30
2017-08-25T09:06:08.119Z,23.80
2017-08-25T09:11:09.820Z,24.50
2017-08-25T09:16:11.492Z,25.30
2017-08-25T09:21:13.371Z,25.50
2017-08-25T09:26:15.225Z,25.80
2017-08-25T09:31:16.920Z,26.30
2017-08-25T09:36:19.336Z,26.40
2017-08-25T09:41:21.186Z,26.50
2017-08-25T09:46:23.168Z,26.50
2017-08-25T09:51:26.068Z,27.20
2017-08-25T09:56:27.845Z,27.20
2017-08-25T10:01:30.411Z,26.70
2017-08-25T10:06:32.294Z,27.20
2017-08-25T10:11:34.273Z,27.40
2017-08-25T10:16:35.949Z,27.00
2017-08-25T10:21:37.846Z,27.60
2017-08-25T10:26:40.647Z,27.40
2017-08-25T10:31:42.706Z,27.80
2017-08-25T10:36:56.586Z,27.50
2017-08-25T10:42:11.574Z,27.70
2017-08-25T10:47:13.421Z,27.50
2017-08-25T10:52:15.121Z,27.50
2017-08-25T10:57:16.782Z,27.20
2017-08-25T11:02:18.671Z,27.70
2017-08-25T11:07:20.318Z,27.60
2017-08-25T11:12:22.021Z,27.60
2017-08-25T11:17:23.665Z,27.50
2017-08-25T11:22:25.340Z,27.80
2017-08-25T11:27:27.960Z,27.60
2017-08-25T11:32:29.629Z,27.60
2017-08-25T11:37:31.302Z,27.80
2017-08-25T11:42:33.059Z,27.70
2017-08-25T11:47:34.824Z,27.70
2017-08-25T11:52:36.525Z,27.80
2017-08-25T11:57:38.381Z,28.00
2017-08-25T12:02:40.278Z,27.90
2017-08-25T12:07:41.931Z,27.80
2017-08-25T12:12:44.731Z,27.70
2017-08-25T12:17:46.396Z,27.80
2017-08-25T12:22:48.173Z,28.00
2017-08-25T12:27:49.877Z,27.80
2017-08-25T12:32:52.999Z,27.80
2017-08-25T12:37:54.625Z,28.00
2017-08-25T12:42:56.326Z,28.30
2017-08-25T12:47:58.202Z,28.10
2017-08-25T12:52:59.869Z,28.30
2017-08-25T12:58:01.513Z,28.40
2017-08-25T13:03:03.180Z,28.20
2017-08-25T13:08:05.073Z,28.30
2017-08-25T13:13:06.770Z,28.30
2017-08-25T13:18:08.443Z,28.30
2017-08-25T13:23:10.095Z,28.40
2017-08-25T13:28:11.790Z,28.30
2017-08-25T13:33:13.462Z,28.30
2017-08-25T13:38:15.134Z,28.40
2017-08-25T13:43:16.807Z,28.40
2017-08-25T13:48:18.429Z,28.40
2017-08-25T13:53:20.126Z,28.20
2017-08-25T13:58:21.902Z,28.50
2017-08-25T14:03:23.584Z,28.40
2017-08-25T14:08:26.501Z,28.70
2017-08-25T14:13:28.154Z,28.40
2017-08-25T14:18:29.825Z,28.30
2017-08-25T14:23:31.522Z,28.20
2017-08-25T14:28:33.268Z,28.20
2017-08-25T14:33:34.948Z,28.40
2017-08-25T14:38:36.626Z,28.40
2017-08-25T14:43:38.314Z,28.40
2017-08-25T14:48:40.091Z,28.30
2017-08-25T14:53:41.716Z,28.40
2017-08-25T14:58:45.026Z,28.30
2017-08-25T15:03:46.724Z,28.10
2017-08-25T15:08:48.419Z,28.00
2017-08-25T15:13:50.077Z,28.20
2017-08-25T15:18:51.867Z,28.10
2017-08-25T15:23:53.616Z,28.20
2017-08-25T15:28:55.314Z,28.30
2017-08-25T15:33:56.966Z,28.10
2017-08-25T15:38:58.644Z,28.00
2017-08-25T15:44:00.317Z,27.90
2017-08-25T15:49:01.990Z,27.90
2017-08-25T15:54:03.883Z,27.90
2017-08-25T15:59:05.557Z,27.90
2017-08-25T16:04:07.234Z,27.80
2017-08-25T16:09:08.902Z,27.80
2017-08-25T16:14:10.528Z,27.70
2017-08-25T16:19:12.330Z,27.70
2017-08-25T16:24:15.024Z,27.60
2017-08-25T16:29:17.729Z,27.60
2017-08-25T16:34:19.373Z,27.60
2017-08-25T16:39:21.094Z,27.60
2017-08-25T16:44:22.738Z,27.50
2017-08-25T16:49:24.380Z,27.10
2017-08-25T16:54:26.109Z,26.70
2017-08-25T16:59:27.883Z,26.10
2017-08-25T17:04:29.761Z,23.40
2017-08-25T17:09:31.393Z,22.20
2017-08-25T17:14:33.033Z,21.30
2017-08-25T17:19:34.963Z,21.10
2017-08-25T17:24:38.678Z,19.90
2017-08-25T17:29:40.332Z,20.90
2017-08-25T17:34:42.474Z,21.30
2017-08-25T17:39:44.049Z,21.40
2017-08-25T17:44:45.808Z,21.50
2017-08-25T17:49:47.478Z,21.30
2017-08-25T17:54:49.076Z,21.40
2017-08-25T17:59:50.823Z,21.20
2017-08-25T18:04:52.468Z,21.10
2017-08-25T18:09:54.141Z,20.80
2017-08-25T18:14:55.807Z,20.80
2017-08-25T18:19:57.446Z,20.70
2017-08-25T18:25:00.391Z,20.70
2017-08-25T18:30:02.025Z,20.80
2017-08-25T18:35:03.732Z,20.90
2017-08-25T18:40:05.405Z,21.00
2017-08-25T18:45:08.060Z,20.80
2017-08-25T18:50:10.827Z,20.80
2017-08-25T18:55:12.500Z,20.70
2017-08-25T19:00:15.199Z,20.50
2017-08-25T19:05:17.998Z,20.60
2017-08-25T19:10:19.669Z,20.40
2017-08-25T19:15:21.341Z,20.30
2017-08-25T19:20:23.067Z,20.20
2017-08-25T19:25:24.776Z,20.20
2017-08-25T19:30:26.463Z,20.40
2017-08-25T19:35:28.105Z,20.60
2017-08-25T19:40:29.807Z,20.30
2017-08-25T19:45:32.298Z,20.60
2017-08-25T19:50:33.950Z,20.70
2017-08-25T19:55:35.644Z,20.60
2017-08-25T20:00:37.272Z,20.70
2017-08-25T20:05:38.991Z,20.60
2017-08-25T20:10:40.640Z,20.30
2017-08-25T20:15:42.274Z,20.20
2017-08-25T20:20:43.928Z,19.90
2017-08-25T20:25:45.681Z,19.80
2017-08-25T20:30:47.765Z,19.80
2017-08-25T20:35:49.540Z,19.70
2017-08-25T20:40:51.267Z,19.80
2017-08-25T20:45:52.963Z,19.70
2017-08-25T20:50:54.633Z,19.70
2017-08-25T20:55:56.330Z,19.50
2017-08-25T21:00:57.950Z,19.60
2017-08-25T21:05:59.676Z,19.70
2017-08-25T21:11:01.351Z,19.70
2017-08-25T21:16:03.023Z,19.70
2017-08-25T21:21:04.678Z,19.70
2017-08-25T21:26:06.344Z,19.70
2017-08-25T21:31:07.974Z,19.60
2017-08-25T21:36:09.718Z,19.50
2017-08-25T21:41:12.369Z,19.50
2017-08-25T21:46:15.104Z,19.50
2017-08-25T21:51:16.882Z,19.30
2017-08-25T21:56:19.345Z,19.10
2017-08-25T22:01:21.323Z,19.10
2017-08-25T22:06:24.020Z,19.30
2017-08-25T22:11:26.728Z,19.30
2017-08-25T22:16:28.525Z,19.30
2017-08-25T22:21:30.228Z,19.30
2017-08-25T22:26:31.846Z,19.00
2017-08-25T22:31:33.424Z,19.20
2017-08-25T22:36:36.238Z,19.20
2017-08-25T22:41:37.986Z,19.20
2017-08-25T22:46:40.128Z,19.20
2017-08-25T22:51:41.766Z,19.30
2017-08-25T22:56:44.205Z,19.30
2017-08-25T23:01:46.937Z,19.20
2017-08-25T23:06:48.629Z,19.00
2017-08-25T23:11:51.596Z,19.00
2017-08-25T23:16:53.408Z,19.00
2017-08-25T23:21:55.059Z,19.10
2017-08-25T23:26:56.986Z,19.10
2017-08-25T23:31:59.623Z,19.10
2017-08-25T23:37:01.326Z,19.00
2017-08-25T23:42:02.999Z,19.10
2017-08-25T23:47:04.728Z,19.10
2017-08-25T23:52:06.448Z,18.90
2017-08-25T23:57:08.119Z,19.00
